sensor_id;sensor_type;location;lat;lon;timestamp;pressure;altitude;pressure_sealevel;temperature
27715;BMP280;16051;53.024;8.630;2022-07-30T00:03:16;101679.69;;;19.28
27715;BMP280;16051;53.024;8.630;2022-07-30T00:07:18;101673.28;;;19.22
27715;BMP280;16051;53.024;8.630;2022-07-30T00:11:22;101675.34;;;19.15
27715;BMP280;16051;53.024;8.630;2022-07-30T00:15:24;101665.66;;;19.05
27715;BMP280;16051;53.024;8.630;2022-07-30T00:19:26;101662.59;;;18.98
27715;BMP280;16051;53.024;8.630;2022-07-30T00:23:28;101657.75;;;18.93
27715;BMP280;16051;53.024;8.630;2022-07-30T00:27:33;101660.03;;;18.83
27715;BMP280;16051;53.024;8.630;2022-07-30T00:31:35;101658.22;;;18.75
27715;BMP280;16051;53.024;8.630;2022-07-30T00:35:38;101650.59;;;18.64
27715;BMP280;16051;53.024;8.630;2022-07-30T00:39:40;101651.06;;;18.57
27715;BMP280;16051;53.024;8.630;2022-07-30T00:43:44;101648.53;;;18.53
27715;BMP280;16051;53.024;8.630;2022-07-30T00:47:46;101645.69;;;18.48
27715;BMP280;16051;53.024;8.630;2022-07-30T00:51:49;101640.84;;;18.43
27715;BMP280;16051;53.024;8.630;2022-07-30T00:55:51;101633.97;;;18.38
27715;BMP280;16051;53.024;8.630;2022-07-30T00:59:55;101633.94;;;18.33
27715;BMP280;16051;53.024;8.630;2022-07-30T01:03:57;101621.47;;;18.28
27715;BMP280;16051;53.024;8.630;2022-07-30T01:07:59;101627.06;;;18.23
27715;BMP280;16051;53.024;8.630;2022-07-30T01:12:02;101621.72;;;18.19
27715;BMP280;16051;53.024;8.630;2022-07-30T01:16:08;101620.66;;;18.11
27715;BMP280;16051;53.024;8.630;2022-07-30T01:20:15;101624.69;;;18.04
27715;BMP280;16051;53.024;8.630;2022-07-30T01:24:27;101616.78;;;17.97
27715;BMP280;16051;53.024;8.630;2022-07-30T01:28:36;101609.16;;;17.92
27715;BMP280;16051;53.024;8.630;2022-07-30T01:32:46;101603.53;;;17.87
27715;BMP280;16051;53.024;8.630;2022-07-30T01:36:50;101608.06;;;17.79
27715;BMP280;16051;53.024;8.630;2022-07-30T01:40:53;101607.72;;;17.65
27715;BMP280;16051;53.024;8.630;2022-07-30T01:44:59;101601.41;;;17.65
27715;BMP280;16051;53.024;8.630;2022-07-30T01:49:02;101596.78;;;17.62
27715;BMP280;16051;53.024;8.630;2022-07-30T01:53:21;101600.53;;;17.53
27715;BMP280;16051;53.024;8.630;2022-07-30T01:57:24;101593.16;;;17.50
27715;BMP280;16051;53.024;8.630;2022-07-30T02:01:28;101595.41;;;17.46
27715;BMP280;16051;53.024;8.630;2022-07-30T02:05:33;101585.19;;;17.38
27715;BMP280;16051;53.024;8.630;2022-07-30T02:09:44;101587.44;;;17.28
27715;BMP280;16051;53.024;8.630;2022-07-30T02:13:53;101588.38;;;17.19
27715;BMP280;16051;53.024;8.630;2022-07-30T02:18:31;101594.63;;;17.09
27715;BMP280;16051;53.024;8.630;2022-07-30T02:22:37;101584.69;;;17.02
27715;BMP280;16051;53.024;8.630;2022-07-30T02:26:41;101590.97;;;16.97
27715;BMP280;16051;53.024;8.630;2022-07-30T02:30:51;101581.81;;;16.91
27715;BMP280;16051;53.024;8.630;2022-07-30T02:35:00;101588.66;;;16.90
27715;BMP280;16051;53.024;8.630;2022-07-30T02:39:06;101592.88;;;16.80
27715;BMP280;16051;53.024;8.630;2022-07-30T02:43:09;101591.56;;;16.76
27715;BMP280;16051;53.024;8.630;2022-07-30T02:47:16;101589.19;;;16.63
27715;BMP280;16051;53.024;8.630;2022-07-30T02:51:23;101584.50;;;16.54
27715;BMP280;16051;53.024;8.630;2022-07-30T02:55:29;101587.00;;;16.52
27715;BMP280;16051;53.024;8.630;2022-07-30T02:59:34;101588.22;;;16.46
27715;BMP280;16051;53.024;8.630;2022-07-30T03:03:37;101586.34;;;16.37
27715;BMP280;16051;53.024;8.630;2022-07-30T03:07:43;101590.94;;;16.40
27715;BMP280;16051;53.024;8.630;2022-07-30T03:11:48;101581.97;;;16.31
27715;BMP280;16051;53.024;8.630;2022-07-30T03:15:52;101590.25;;;16.25
27715;BMP280;16051;53.024;8.630;2022-07-30T03:19:58;101581.00;;;16.13
27715;BMP280;16051;53.024;8.630;2022-07-30T03:24:05;101584.78;;;16.10
27715;BMP280;16051;53.024;8.630;2022-07-30T03:28:09;101576.28;;;15.99
27715;BMP280;16051;53.024;8.630;2022-07-30T03:32:13;101584.06;;;15.95
27715;BMP280;16051;53.024;8.630;2022-07-30T03:36:16;101590.47;;;15.81
27715;BMP280;16051;53.024;8.630;2022-07-30T03:40:39;101584.66;;;15.79
27715;BMP280;16051;53.024;8.630;2022-07-30T03:44:42;101590.47;;;15.81
27715;BMP280;16051;53.024;8.630;2022-07-30T03:48:46;101599.75;;;15.72
27715;BMP280;16051;53.024;8.630;2022-07-30T03:52:49;101603.84;;;15.57
27715;BMP280;16051;53.024;8.630;2022-07-30T03:56:53;101599.50;;;15.56
27715;BMP280;16051;53.024;8.630;2022-07-30T04:00:55;101600.69;;;15.49
27715;BMP280;16051;53.024;8.630;2022-07-30T04:04:57;101607.31;;;15.52
27715;BMP280;16051;53.024;8.630;2022-07-30T04:08:59;101611.63;;;15.53
27715;BMP280;16051;53.024;8.630;2022-07-30T04:13:13;101612.28;;;15.48
27715;BMP280;16051;53.024;8.630;2022-07-30T04:17:21;101613.22;;;15.45
27715;BMP280;16051;53.024;8.630;2022-07-30T04:21:26;101612.31;;;15.33
27715;BMP280;16051;53.024;8.630;2022-07-30T04:25:30;101620.56;;;15.27
27715;BMP280;16051;53.024;8.630;2022-07-30T04:29:35;101616.34;;;15.32
27715;BMP280;16051;53.024;8.630;2022-07-30T04:33:37;101626.25;;;15.33
27715;BMP280;16051;53.024;8.630;2022-07-30T04:37:54;101626.03;;;15.37
27715;BMP280;16051;53.024;8.630;2022-07-30T04:41:56;101621.31;;;15.43
27715;BMP280;16051;53.024;8.630;2022-07-30T04:46:00;101616.03;;;15.45
27715;BMP280;16051;53.024;8.630;2022-07-30T04:50:05;101624.97;;;15.49
27715;BMP280;16051;53.024;8.630;2022-07-30T04:54:10;101637.53;;;15.44
27715;BMP280;16051;53.024;8.630;2022-07-30T04:58:39;101635.81;;;15.47
27715;BMP280;16051;53.024;8.630;2022-07-30T05:02:45;101631.59;;;15.51
27715;BMP280;16051;53.024;8.630;2022-07-30T05:06:48;101630.84;;;15.51
27715;BMP280;16051;53.024;8.630;2022-07-30T05:10:50;101633.78;;;15.47
27715;BMP280;16051;53.024;8.630;2022-07-30T05:14:53;101627.28;;;15.50
27715;BMP280;16051;53.024;8.630;2022-07-30T05:18:56;101638.28;;;15.59
27715;BMP280;16051;53.024;8.630;2022-07-30T05:22:58;101645.03;;;15.53
27715;BMP280;16051;53.024;8.630;2022-07-30T05:27:00;101645.53;;;15.51
27715;BMP280;16051;53.024;8.630;2022-07-30T05:31:03;101643.78;;;15.39
27715;BMP280;16051;53.024;8.630;2022-07-30T05:35:07;101650.91;;;15.40
27715;BMP280;16051;53.024;8.630;2022-07-30T05:39:10;101649.63;;;15.41
27715;BMP280;16051;53.024;8.630;2022-07-30T05:43:12;101658.75;;;15.42
27715;BMP280;16051;53.024;8.630;2022-07-30T05:47:14;101658.75;;;15.42
27715;BMP280;16051;53.024;8.630;2022-07-30T05:51:19;101664.81;;;15.40
27715;BMP280;16051;53.024;8.630;2022-07-30T05:55:21;101665.09;;;15.42
27715;BMP280;16051;53.024;8.630;2022-07-30T05:59:23;101665.78;;;15.52
27715;BMP280;16051;53.024;8.630;2022-07-30T06:03:26;101669.47;;;15.63
27715;BMP280;16051;53.024;8.630;2022-07-30T06:07:29;101681.09;;;15.77
27715;BMP280;16051;53.024;8.630;2022-07-30T06:11:31;101686.88;;;15.93
27715;BMP280;16051;53.024;8.630;2022-07-30T06:15:33;101681.72;;;16.06
27715;BMP280;16051;53.024;8.630;2022-07-30T06:19:36;101689.34;;;16.26
27715;BMP280;16051;53.024;8.630;2022-07-30T06:23:39;101687.81;;;16.45
27715;BMP280;16051;53.024;8.630;2022-07-30T06:28:12;101688.44;;;16.55
27715;BMP280;16051;53.024;8.630;2022-07-30T06:32:14;101680.44;;;16.62
27715;BMP280;16051;53.024;8.630;2022-07-30T06:36:17;101683.34;;;16.73
27715;BMP280;16051;53.024;8.630;2022-07-30T06:40:20;101692.31;;;16.83
27715;BMP280;16051;53.024;8.630;2022-07-30T06:44:28;101691.19;;;16.95
27715;BMP280;16051;53.024;8.630;2022-07-30T06:48:30;101685.47;;;17.10
27715;BMP280;16051;53.024;8.630;2022-07-30T06:52:33;101685.06;;;17.22
27715;BMP280;16051;53.024;8.630;2022-07-30T06:56:36;101682.88;;;17.32
27715;BMP280;16051;53.024;8.630;2022-07-30T07:00:39;101681.66;;;17.39
27715;BMP280;16051;53.024;8.630;2022-07-30T07:05:01;101688.44;;;17.58
27715;BMP280;16051;53.024;8.630;2022-07-30T07:09:04;101682.69;;;17.73
27715;BMP280;16051;53.024;8.630;2022-07-30T07:13:07;101678.94;;;17.81
27715;BMP280;16051;53.024;8.630;2022-07-30T07:17:09;101690.19;;;17.92
27715;BMP280;16051;53.024;8.630;2022-07-30T07:21:13;101686.38;;;17.95
27715;BMP280;16051;53.024;8.630;2022-07-30T07:25:20;101688.44;;;18.00
27715;BMP280;16051;53.024;8.630;2022-07-30T07:29:23;101690.53;;;18.11
27715;BMP280;16051;53.024;8.630;2022-07-30T07:33:25;101681.19;;;18.25
27715;BMP280;16051;53.024;8.630;2022-07-30T07:37:27;101690.41;;;18.37
27715;BMP280;16051;53.024;8.630;2022-07-30T07:42:06;101681.25;;;18.42
27715;BMP280;16051;53.024;8.630;2022-07-30T07:46:10;101684.66;;;18.57
27715;BMP280;16051;53.024;8.630;2022-07-30T07:50:18;101679.13;;;18.96
27715;BMP280;16051;53.024;8.630;2022-07-30T07:54:20;101680.41;;;19.39
27715;BMP280;16051;53.024;8.630;2022-07-30T07:58:22;101686.25;;;19.80
27715;BMP280;16051;53.024;8.630;2022-07-30T08:02:26;101668.56;;;20.13
27715;BMP280;16051;53.024;8.630;2022-07-30T08:06:28;101687.44;;;20.29
27715;BMP280;16051;53.024;8.630;2022-07-30T08:10:30;101689.94;;;20.27
27715;BMP280;16051;53.024;8.630;2022-07-30T08:14:32;101681.56;;;20.22
27715;BMP280;16051;53.024;8.630;2022-07-30T08:18:36;101682.06;;;20.20
27715;BMP280;16051;53.024;8.630;2022-07-30T08:22:39;101674.16;;;20.19
27715;BMP280;16051;53.024;8.630;2022-07-30T08:26:45;101671.63;;;20.21
27715;BMP280;16051;53.024;8.630;2022-07-30T08:30:47;101674.41;;;20.21
27715;BMP280;16051;53.024;8.630;2022-07-30T08:34:51;101666.72;;;20.27
27715;BMP280;16051;53.024;8.630;2022-07-30T08:38:53;101664.16;;;20.40
27715;BMP280;16051;53.024;8.630;2022-07-30T08:42:55;101661.31;;;20.51
27715;BMP280;16051;53.024;8.630;2022-07-30T08:47:10;101662.75;;;20.63
27715;BMP280;16051;53.024;8.630;2022-07-30T08:51:18;101665.75;;;20.76
27715;BMP280;16051;53.024;8.630;2022-07-30T08:55:48;101662.84;;;20.87
27715;BMP280;16051;53.024;8.630;2022-07-30T08:59:51;101669.16;;;20.99
27715;BMP280;16051;53.024;8.630;2022-07-30T09:03:53;101665.50;;;21.09
27715;BMP280;16051;53.024;8.630;2022-07-30T09:07:57;101667.72;;;21.22
27715;BMP280;16051;53.024;8.630;2022-07-30T09:12:34;101665.78;;;21.41
27715;BMP280;16051;53.024;8.630;2022-07-30T09:16:38;101669.69;;;21.57
27715;BMP280;16051;53.024;8.630;2022-07-30T09:20:40;101677.81;;;21.66
27715;BMP280;16051;53.024;8.630;2022-07-30T09:24:43;101678.44;;;21.78
27715;BMP280;16051;53.024;8.630;2022-07-30T09:28:45;101680.34;;;21.94
27715;BMP280;16051;53.024;8.630;2022-07-30T09:32:55;101692.56;;;22.21
27715;BMP280;16051;53.024;8.630;2022-07-30T09:36:59;101678.22;;;22.24
27715;BMP280;16051;53.024;8.630;2022-07-30T09:41:03;101678.13;;;22.30
27715;BMP280;16051;53.024;8.630;2022-07-30T09:45:17;101672.34;;;22.41
27715;BMP280;16051;53.024;8.630;2022-07-30T09:49:28;101678.66;;;22.66
27715;BMP280;16051;53.024;8.630;2022-07-30T09:53:32;101684.81;;;22.83
27715;BMP280;16051;53.024;8.630;2022-07-30T09:57:54;101678.22;;;23.12
27715;BMP280;16051;53.024;8.630;2022-07-30T10:01:57;101691.81;;;23.59
27715;BMP280;16051;53.024;8.630;2022-07-30T10:06:00;101695.34;;;24.17
27715;BMP280;16051;53.024;8.630;2022-07-30T10:10:03;101693.19;;;24.70
27715;BMP280;16051;53.024;8.630;2022-07-30T10:14:07;101696.16;;;25.19
27715;BMP280;16051;53.024;8.630;2022-07-30T10:18:46;101693.53;;;25.63
27715;BMP280;16051;53.024;8.630;2022-07-30T10:22:50;101690.88;;;25.85
27715;BMP280;16051;53.024;8.630;2022-07-30T10:26:53;101694.31;;;25.91
27715;BMP280;16051;53.024;8.630;2022-07-30T10:30:57;101699.91;;;25.84
27715;BMP280;16051;53.024;8.630;2022-07-30T10:35:19;101687.81;;;25.55
27715;BMP280;16051;53.024;8.630;2022-07-30T10:39:30;101689.56;;;25.86
27715;BMP280;16051;53.024;8.630;2022-07-30T10:44:21;101688.00;;;26.14
27715;BMP280;16051;53.024;8.630;2022-07-30T10:48:31;101694.78;;;25.54
27715;BMP280;16051;53.024;8.630;2022-07-30T10:53:01;101691.66;;;25.65
27715;BMP280;16051;53.024;8.630;2022-07-30T10:57:05;101681.53;;;26.34
27715;BMP280;16051;53.024;8.630;2022-07-30T11:01:07;101666.25;;;26.96
27715;BMP280;16051;53.024;8.630;2022-07-30T11:05:24;101680.09;;;27.60
27715;BMP280;16051;53.024;8.630;2022-07-30T11:09:35;101692.72;;;26.98
27715;BMP280;16051;53.024;8.630;2022-07-30T11:13:58;101690.81;;;26.42
27715;BMP280;16051;53.024;8.630;2022-07-30T11:18:06;101690.72;;;26.70
27715;BMP280;16051;53.024;8.630;2022-07-30T11:22:32;101681.22;;;27.34
27715;BMP280;16051;53.024;8.630;2022-07-30T11:26:56;101693.78;;;26.80
27715;BMP280;16051;53.024;8.630;2022-07-30T11:30:59;101682.22;;;26.19
27715;BMP280;16051;53.024;8.630;2022-07-30T11:35:18;101691.19;;;25.74
27715;BMP280;16051;53.024;8.630;2022-07-30T11:39:22;101685.81;;;25.42
27715;BMP280;16051;53.024;8.630;2022-07-30T11:43:26;101687.69;;;25.61
27715;BMP280;16051;53.024;8.630;2022-07-30T11:47:30;101685.66;;;26.76
27715;BMP280;16051;53.024;8.630;2022-07-30T11:51:39;101681.06;;;26.58
27715;BMP280;16051;53.024;8.630;2022-07-30T11:55:48;101686.91;;;26.60
27715;BMP280;16051;53.024;8.630;2022-07-30T11:59:54;101674.50;;;26.27
27715;BMP280;16051;53.024;8.630;2022-07-30T12:04:01;101674.44;;;26.56
27715;BMP280;16051;53.024;8.630;2022-07-30T12:08:04;101677.19;;;26.91
27715;BMP280;16051;53.024;8.630;2022-07-30T12:12:22;101685.34;;;27.10
27715;BMP280;16051;53.024;8.630;2022-07-30T12:16:34;101685.25;;;26.72
27715;BMP280;16051;53.024;8.630;2022-07-30T12:20:36;101689.28;;;26.41
27715;BMP280;16051;53.024;8.630;2022-07-30T12:24:39;101694.69;;;26.24
27715;BMP280;16051;53.024;8.630;2022-07-30T12:28:44;101690.97;;;26.01
27715;BMP280;16051;53.024;8.630;2022-07-30T12:32:52;101682.53;;;26.44
27715;BMP280;16051;53.024;8.630;2022-07-30T12:37:06;101682.88;;;27.07
27715;BMP280;16051;53.024;8.630;2022-07-30T12:41:08;101683.72;;;26.71
27715;BMP280;16051;53.024;8.630;2022-07-30T12:45:33;101689.34;;;26.56
27715;BMP280;16051;53.024;8.630;2022-07-30T12:49:35;101686.59;;;26.28
27715;BMP280;16051;53.024;8.630;2022-07-30T12:53:38;101683.56;;;26.77
27715;BMP280;16051;53.024;8.630;2022-07-30T12:57:56;101677.22;;;26.48
27715;BMP280;16051;53.024;8.630;2022-07-30T13:02:00;101674.03;;;26.16
27715;BMP280;16051;53.024;8.630;2022-07-30T13:06:13;101676.41;;;25.97
27715;BMP280;16051;53.024;8.630;2022-07-30T13:10:15;101674.50;;;25.91
27715;BMP280;16051;53.024;8.630;2022-07-30T13:14:19;101680.34;;;26.22
27715;BMP280;16051;53.024;8.630;2022-07-30T13:18:24;101667.78;;;27.04
27715;BMP280;16051;53.024;8.630;2022-07-30T13:22:26;101677.06;;;27.20
27715;BMP280;16051;53.024;8.630;2022-07-30T13:26:28;101668.13;;;26.93
27715;BMP280;16051;53.024;8.630;2022-07-30T13:30:31;101663.50;;;26.60
27715;BMP280;16051;53.024;8.630;2022-07-30T13:34:34;101669.47;;;26.33
27715;BMP280;16051;53.024;8.630;2022-07-30T13:38:36;101670.28;;;26.13
27715;BMP280;16051;53.024;8.630;2022-07-30T13:42:38;101671.88;;;25.93
27715;BMP280;16051;53.024;8.630;2022-07-30T13:46:41;101665.31;;;25.70
27715;BMP280;16051;53.024;8.630;2022-07-30T13:50:46;101661.38;;;25.73
27715;BMP280;16051;53.024;8.630;2022-07-30T13:54:48;101658.75;;;25.75
27715;BMP280;16051;53.024;8.630;2022-07-30T13:58:54;101662.53;;;25.78
27715;BMP280;16051;53.024;8.630;2022-07-30T14:02:57;101648.97;;;25.84
27715;BMP280;16051;53.024;8.630;2022-07-30T14:07:01;101656.31;;;25.79
27715;BMP280;16051;53.024;8.630;2022-07-30T14:11:20;101654.94;;;25.73
27715;BMP280;16051;53.024;8.630;2022-07-30T14:15:23;101654.00;;;25.70
27715;BMP280;16051;53.024;8.630;2022-07-30T14:19:35;101654.91;;;25.65
27715;BMP280;16051;53.024;8.630;2022-07-30T14:23:38;101649.41;;;25.60
27715;BMP280;16051;53.024;8.630;2022-07-30T14:27:41;101646.56;;;25.60
27715;BMP280;16051;53.024;8.630;2022-07-30T14:31:43;101644.16;;;25.64
27715;BMP280;16051;53.024;8.630;2022-07-30T14:35:45;101639.66;;;25.68
27715;BMP280;16051;53.024;8.630;2022-07-30T14:39:49;101637.06;;;25.78
27715;BMP280;16051;53.024;8.630;2022-07-30T14:43:51;101633.97;;;25.97
27715;BMP280;16051;53.024;8.630;2022-07-30T14:48:27;101632.59;;;26.18
27715;BMP280;16051;53.024;8.630;2022-07-30T14:52:30;101620.22;;;26.08
27715;BMP280;16051;53.024;8.630;2022-07-30T14:56:35;101627.78;;;26.49
27715;BMP280;16051;53.024;8.630;2022-07-30T15:00:45;101627.78;;;26.49
27715;BMP280;16051;53.024;8.630;2022-07-30T15:04:47;101636.00;;;26.24
27715;BMP280;16051;53.024;8.630;2022-07-30T15:08:49;101641.91;;;26.41
27715;BMP280;16051;53.024;8.630;2022-07-30T15:12:53;101634.28;;;26.80
27715;BMP280;16051;53.024;8.630;2022-07-30T15:16:57;101638.41;;;26.71
27715;BMP280;16051;53.024;8.630;2022-07-30T15:20:59;101640.97;;;26.39
27715;BMP280;16051;53.024;8.630;2022-07-30T15:25:02;101637.34;;;25.95
27715;BMP280;16051;53.024;8.630;2022-07-30T15:29:14;101627.50;;;25.88
27715;BMP280;16051;53.024;8.630;2022-07-30T15:33:23;101632.66;;;25.69
27715;BMP280;16051;53.024;8.630;2022-07-30T15:37:26;101624.19;;;25.69
27715;BMP280;16051;53.024;8.630;2022-07-30T15:41:36;101625.06;;;25.57
27715;BMP280;16051;53.024;8.630;2022-07-30T15:45:39;101614.22;;;25.76
27715;BMP280;16051;53.024;8.630;2022-07-30T15:50:07;101624.41;;;26.07
27715;BMP280;16051;53.024;8.630;2022-07-30T15:54:27;101625.63;;;26.27
27715;BMP280;16051;53.024;8.630;2022-07-30T15:58:38;101634.78;;;26.63
27715;BMP280;16051;53.024;8.630;2022-07-30T16:02:42;101635.75;;;26.73
27715;BMP280;16051;53.024;8.630;2022-07-30T16:06:59;101639.53;;;26.61
27715;BMP280;16051;53.024;8.630;2022-07-30T16:11:02;101640.41;;;26.48
27715;BMP280;16051;53.024;8.630;2022-07-30T16:15:08;101642.22;;;26.23
27715;BMP280;16051;53.024;8.630;2022-07-30T16:19:39;101641.09;;;26.18
27715;BMP280;16051;53.024;8.630;2022-07-30T16:23:41;101643.06;;;26.03
27715;BMP280;16051;53.024;8.630;2022-07-30T16:27:46;101632.97;;;25.86
27715;BMP280;16051;53.024;8.630;2022-07-30T16:31:49;101636.47;;;25.72
27715;BMP280;16051;53.024;8.630;2022-07-30T16:36:15;101645.69;;;25.65
27715;BMP280;16051;53.024;8.630;2022-07-30T16:40:23;101652.19;;;25.52
27715;BMP280;16051;53.024;8.630;2022-07-30T16:44:26;101682.66;;;25.46
27715;BMP280;16051;53.024;8.630;2022-07-30T16:48:31;101682.97;;;24.67
27715;BMP280;16051;53.024;8.630;2022-07-30T16:52:35;101694.69;;;24.37
27715;BMP280;16051;53.024;8.630;2022-07-30T16:56:37;101696.63;;;24.29
27715;BMP280;16051;53.024;8.630;2022-07-30T17:00:40;101700.75;;;24.02
27715;BMP280;16051;53.024;8.630;2022-07-30T17:04:42;101697.81;;;23.68
27715;BMP280;16051;53.024;8.630;2022-07-30T17:08:45;101706.06;;;23.34
27715;BMP280;16051;53.024;8.630;2022-07-30T17:12:48;101711.59;;;23.08
27715;BMP280;16051;53.024;8.630;2022-07-30T17:16:50;101711.66;;;22.71
27715;BMP280;16051;53.024;8.630;2022-07-30T17:20:52;101726.28;;;22.45
27715;BMP280;16051;53.024;8.630;2022-07-30T17:25:03;101732.50;;;22.38
27715;BMP280;16051;53.024;8.630;2022-07-30T17:29:05;101733.56;;;22.35
27715;BMP280;16051;53.024;8.630;2022-07-30T17:33:08;101730.41;;;22.20
27715;BMP280;16051;53.024;8.630;2022-07-30T17:37:38;101740.38;;;21.96
27715;BMP280;16051;53.024;8.630;2022-07-30T17:41:42;101744.25;;;21.93
27715;BMP280;16051;53.024;8.630;2022-07-30T17:45:57;101751.72;;;21.85
27715;BMP280;16051;53.024;8.630;2022-07-30T17:49:59;101749.16;;;21.87
27715;BMP280;16051;53.024;8.630;2022-07-30T17:54:02;101753.22;;;21.92
27715;BMP280;16051;53.024;8.630;2022-07-30T17:58:08;101750.66;;;21.94
27715;BMP280;16051;53.024;8.630;2022-07-30T18:02:11;101738.41;;;21.91
27715;BMP280;16051;53.024;8.630;2022-07-30T18:06:21;101752.47;;;21.91
27715;BMP280;16051;53.024;8.630;2022-07-30T18:10:24;101752.19;;;21.95
27715;BMP280;16051;53.024;8.630;2022-07-30T18:14:28;101746.44;;;22.06
27715;BMP280;16051;53.024;8.630;2022-07-30T18:18:30;101752.81;;;22.06
27715;BMP280;16051;53.024;8.630;2022-07-30T18:22:33;101751.47;;;22.13
27715;BMP280;16051;53.024;8.630;2022-07-30T18:26:35;101749.56;;;22.21
27715;BMP280;16051;53.024;8.630;2022-07-30T18:30:41;101750.88;;;22.20
27715;BMP280;16051;53.024;8.630;2022-07-30T18:34:43;101749.75;;;22.29
27715;BMP280;16051;53.024;8.630;2022-07-30T18:38:47;101759.78;;;22.24
27715;BMP280;16051;53.024;8.630;2022-07-30T18:42:49;101758.31;;;22.18
27715;BMP280;16051;53.024;8.630;2022-07-30T18:46:53;101754.81;;;22.12
27715;BMP280;16051;53.024;8.630;2022-07-30T18:50:55;101758.72;;;22.03
27715;BMP280;16051;53.024;8.630;2022-07-30T18:54:57;101757.69;;;22.06
27715;BMP280;16051;53.024;8.630;2022-07-30T18:59:09;101756.91;;;22.05
27715;BMP280;16051;53.024;8.630;2022-07-30T19:03:13;101764.09;;;22.06
27715;BMP280;16051;53.024;8.630;2022-07-30T19:07:16;101761.38;;;21.95
27715;BMP280;16051;53.024;8.630;2022-07-30T19:11:19;101768.09;;;21.81
27715;BMP280;16051;53.024;8.630;2022-07-30T19:15:23;101772.16;;;21.91
27715;BMP280;16051;53.024;8.630;2022-07-30T19:19:26;101775.81;;;21.81
27715;BMP280;16051;53.024;8.630;2022-07-30T19:23:28;101787.94;;;21.65
27715;BMP280;16051;53.024;8.630;2022-07-30T19:27:31;101790.59;;;21.51
27715;BMP280;16051;53.024;8.630;2022-07-30T19:31:44;101794.50;;;21.43
27715;BMP280;16051;53.024;8.630;2022-07-30T19:35:48;101796.88;;;21.33
27715;BMP280;16051;53.024;8.630;2022-07-30T19:39:50;101804.91;;;21.13
27715;BMP280;16051;53.024;8.630;2022-07-30T19:43:56;101798.22;;;21.21
27715;BMP280;16051;53.024;8.630;2022-07-30T19:47:59;101805.66;;;21.19
27715;BMP280;16051;53.024;8.630;2022-07-30T19:52:04;101817.69;;;21.02
27715;BMP280;16051;53.024;8.630;2022-07-30T19:56:06;101817.03;;;20.85
27715;BMP280;16051;53.024;8.630;2022-07-30T20:00:11;101825.66;;;20.93
27715;BMP280;16051;53.024;8.630;2022-07-30T20:04:13;101824.16;;;20.86
27715;BMP280;16051;53.024;8.630;2022-07-30T20:08:19;101836.72;;;20.74
27715;BMP280;16051;53.024;8.630;2022-07-30T20:12:21;101841.84;;;20.65
27715;BMP280;16051;53.024;8.630;2022-07-30T20:16:23;101845.19;;;20.52
27715;BMP280;16051;53.024;8.630;2022-07-30T20:20:35;101853.09;;;20.59
27715;BMP280;16051;53.024;8.630;2022-07-30T20:24:39;101858.47;;;20.51
27715;BMP280;16051;53.024;8.630;2022-07-30T20:28:42;101857.22;;;20.41
27715;BMP280;16051;53.024;8.630;2022-07-30T20:32:47;101859.50;;;20.26
27715;BMP280;16051;53.024;8.630;2022-07-30T20:36:49;101870.47;;;20.19
27715;BMP280;16051;53.024;8.630;2022-07-30T20:40:53;101870.75;;;20.09
27715;BMP280;16051;53.024;8.630;2022-07-30T20:44:57;101867.91;;;20.15
27715;BMP280;16051;53.024;8.630;2022-07-30T20:49:00;101865.66;;;20.02
27715;BMP280;16051;53.024;8.630;2022-07-30T20:53:02;101874.06;;;19.86
27715;BMP280;16051;53.024;8.630;2022-07-30T20:57:08;101863.09;;;19.88
27715;BMP280;16051;53.024;8.630;2022-07-30T21:01:10;101864.63;;;19.94
27715;BMP280;16051;53.024;8.630;2022-07-30T21:05:13;101863.09;;;19.71
27715;BMP280;16051;53.024;8.630;2022-07-30T21:09:19;101861.81;;;19.72
27715;BMP280;16051;53.024;8.630;2022-07-30T21:13:22;101864.34;;;19.76
27715;BMP280;16051;53.024;8.630;2022-07-30T21:17:25;101859.78;;;19.73
27715;BMP280;16051;53.024;8.630;2022-07-30T21:21:27;101857.75;;;19.73
27715;BMP280;16051;53.024;8.630;2022-07-30T21:25:29;101849.31;;;19.62
27715;BMP280;16051;53.024;8.630;2022-07-30T21:29:33;101846.78;;;19.64
27715;BMP280;16051;53.024;8.630;2022-07-30T21:33:35;101834.03;;;19.63
27715;BMP280;16051;53.024;8.630;2022-07-30T21:37:37;101846.03;;;19.63
27715;BMP280;16051;53.024;8.630;2022-07-30T21:41:39;101844.25;;;19.60
27715;BMP280;16051;53.024;8.630;2022-07-30T21:45:43;101855.69;;;19.57
27715;BMP280;16051;53.024;8.630;2022-07-30T21:49:45;101857.22;;;19.58
27715;BMP280;16051;53.024;8.630;2022-07-30T21:53:47;101863.56;;;19.53
27715;BMP280;16051;53.024;8.630;2022-07-30T21:57:49;101862.28;;;19.48
27715;BMP280;16051;53.024;8.630;2022-07-30T22:01:54;101859.75;;;19.45
27715;BMP280;16051;53.024;8.630;2022-07-30T22:05:56;101856.66;;;19.43
27715;BMP280;16051;53.024;8.630;2022-07-30T22:09:58;101850.78;;;19.41
27715;BMP280;16051;53.024;8.630;2022-07-30T22:14:00;101851.03;;;19.37
27715;BMP280;16051;53.024;8.630;2022-07-30T22:18:05;101850.00;;;19.40
27715;BMP280;16051;53.024;8.630;2022-07-30T22:22:07;101850.78;;;19.35
27715;BMP280;16051;53.024;8.630;2022-07-30T22:26:09;101840.06;;;19.34
27715;BMP280;16051;53.024;8.630;2022-07-30T22:30:12;101843.63;;;19.29
27715;BMP280;16051;53.024;8.630;2022-07-30T22:34:15;101843.09;;;19.19
27715;BMP280;16051;53.024;8.630;2022-07-30T22:38:18;101839.28;;;19.16
27715;BMP280;16051;53.024;8.630;2022-07-30T22:42:21;101832.38;;;19.17
27715;BMP280;16051;53.024;8.630;2022-07-30T22:46:23;101837.25;;;19.17
27715;BMP280;16051;53.024;8.630;2022-07-30T22:50:45;101828.81;;;19.11
27715;BMP280;16051;53.024;8.630;2022-07-30T22:54:47;101815.53;;;19.01
27715;BMP280;16051;53.024;8.630;2022-07-30T22:58:50;101809.44;;;18.97
27715;BMP280;16051;53.024;8.630;2022-07-30T23:02:52;101813.22;;;18.94
27715;BMP280;16051;53.024;8.630;2022-07-30T23:07:15;101813.97;;;18.89
27715;BMP280;16051;53.024;8.630;2022-07-30T23:11:17;101820.09;;;18.87
27715;BMP280;16051;53.024;8.630;2022-07-30T23:15:19;101803.78;;;18.80
27715;BMP280;16051;53.024;8.630;2022-07-30T23:19:22;101795.88;;;18.79